Time;durP1;ratioP1;P1;durP2;ratioP2;P2;SDS_P1;SDS_P2;PMS_P1;PMS_P2;Temp;Humidity;BMP_temperature;BMP_pressure;BME280_temperature;BME280_humidity;BME280_pressure;Samples;Min_cycle;Max_cycle;Signal;HPM_P1;HPM_P2
2022/06/02 00:01:17;;;;;;;6.00;5.40;;;10.70;99.90;;;;;;5005306;28;20211;-72
2022/06/02 00:04:23;;;;;;;6.43;5.77;;;10.60;99.90;;;;;;4994855;28;20251;-73
2022/06/02 00:07:35;;;;;;;6.00;5.33;;;10.50;99.90;;;;;;5012482;28;20195;-73
2022/06/02 00:10:50;;;;;;;5.57;5.07;;;10.50;99.90;;;;;;5007118;28;20220;-72
2022/06/02 00:13:53;;;;;;;6.20;5.50;;;10.40;99.90;;;;;;5009429;28;20177;-73
2022/06/02 00:17:00;;;;;;;6.43;5.60;;;10.40;99.90;;;;;;5009010;28;20191;-73
2022/06/02 00:19:51;;;;;;;6.97;6.37;;;10.30;99.90;;;;;;5005457;28;20231;-74
2022/06/02 00:22:47;;;;;;;6.53;5.83;;;10.20;99.90;;;;;;5005098;28;20268;-72
2022/06/02 00:25:54;;;;;;;7.50;6.20;;;10.20;99.90;;;;;;5008090;28;20202;-74
2022/06/02 00:28:51;;;;;;;7.30;6.10;;;10.20;99.90;;;;;;5005639;28;20208;-73
2022/06/02 00:31:43;;;;;;;8.53;5.97;;;10.20;99.90;;;;;;5006780;28;20207;-71
2022/06/02 00:34:38;;;;;;;10.13;6.07;;;10.20;99.90;;;;;;5008275;28;20187;-71
2022/06/02 00:37:47;;;;;;;7.03;6.33;;;10.10;99.90;;;;;;5007779;28;20200;-70
2022/06/02 00:40:34;;;;;;;7.33;6.33;;;10.10;99.90;;;;;;5003248;28;20223;-71
2022/06/02 00:43:28;;;;;;;7.30;6.53;;;10.10;99.90;;;;;;5000101;28;20275;-71
2022/06/02 00:46:35;;;;;;;7.17;6.47;;;10.10;99.90;;;;;;5008008;28;20304;-71
2022/06/02 00:49:42;;;;;;;6.60;6.00;;;10.00;99.90;;;;;;4999900;28;20251;-71
2022/06/02 00:52:32;;;;;;;6.97;6.27;;;10.00;99.90;;;;;;5012187;28;20196;-71
2022/06/02 00:59:04;;;;;;;8.87;6.93;;;10.00;99.90;;;;;;5002134;28;20200;-72
2022/06/02 01:01:48;;;;;;;7.87;7.10;;;10.00;99.90;;;;;;4995180;28;20629;-71
2022/06/02 01:04:38;;;;;;;8.53;7.30;;;10.00;99.90;;;;;;5006498;28;20199;-71
2022/06/02 01:07:48;;;;;;;7.87;7.10;;;10.00;99.90;;;;;;5003251;28;20236;-71
2022/06/02 01:10:44;;;;;;;8.53;7.30;;;9.90;99.90;;;;;;5001355;28;20222;-71
2022/06/02 01:13:52;;;;;;;8.93;7.70;;;9.90;99.90;;;;;;5006648;28;20188;-70
2022/06/02 01:17:04;;;;;;;10.43;8.37;;;9.90;99.90;;;;;;5005953;28;20307;-72
2022/06/02 01:20:02;;;;;;;8.87;7.97;;;9.90;99.90;;;;;;4997656;28;20193;-72
2022/06/02 01:23:07;;;;;;;8.27;7.40;;;9.80;99.90;;;;;;5004701;28;20234;-72
2022/06/02 01:26:04;;;;;;;9.93;7.47;;;9.80;99.90;;;;;;5019821;28;20200;-72
2022/06/02 01:29:26;;;;;;;8.37;7.57;;;9.70;99.90;;;;;;5002586;28;20212;-72
2022/06/02 01:32:14;;;;;;;8.97;7.63;;;9.70;99.90;;;;;;5005569;28;20209;-72
2022/06/02 01:35:22;;;;;;;8.50;7.50;;;9.70;99.90;;;;;;5001287;28;20193;-72
2022/06/02 01:38:45;;;;;;;8.30;7.27;;;9.70;99.90;;;;;;5003127;28;20211;-70
2022/06/02 01:41:44;;;;;;;8.50;7.30;;;9.60;99.90;;;;;;4987887;28;20339;-72
2022/06/02 01:44:58;;;;;;;7.93;7.13;;;9.60;99.90;;;;;;5003038;28;20188;-72
2022/06/02 01:47:46;;;;;;;9.20;7.67;;;9.60;99.90;;;;;;5002775;28;20211;-72
2022/06/02 01:51:17;;;;;;;8.40;7.53;;;9.60;99.90;;;;;;5002236;28;20220;-72
2022/06/02 01:54:11;;;;;;;9.00;8.10;;;9.60;99.90;;;;;;4972749;28;20211;-71
2022/06/02 01:57:31;;;;;;;9.43;8.43;;;9.50;99.90;;;;;;5002124;28;20202;-72
2022/06/02 02:00:20;;;;;;;9.37;8.47;;;9.50;99.90;;;;;;5007527;28;20215;-72
2022/06/02 02:03:18;;;;;;;10.50;8.67;;;9.50;99.90;;;;;;4998200;28;20243;-72
2022/06/02 02:06:22;;;;;;;8.23;7.27;;;9.50;99.90;;;;;;5001218;28;20239;-72
2022/06/02 02:09:44;;;;;;;9.33;8.40;;;9.40;99.90;;;;;;4999229;28;20853;-72
2022/06/02 02:12:59;;;;;;;9.33;8.33;;;9.40;99.90;;;;;;5004457;28;20192;-71
2022/06/02 02:16:16;;;;;;;9.73;8.33;;;9.30;99.90;;;;;;5000637;28;20188;-71
2022/06/02 02:19:26;;;;;;;9.97;8.80;;;9.30;99.90;;;;;;5020204;28;20221;-72
2022/06/02 02:22:14;;;;;;;10.13;8.63;;;9.30;99.90;;;;;;4989553;28;20216;-71
2022/06/02 02:25:04;;;;;;;10.10;8.63;;;9.20;99.90;;;;;;5003539;28;20741;-72
2022/06/02 02:28:02;;;;;;;9.43;8.20;;;9.20;99.90;;;;;;5000877;28;20571;-72
2022/06/02 02:31:01;;;;;;;9.07;7.80;;;9.20;99.90;;;;;;5008964;28;20228;-71
2022/06/02 02:34:18;;;;;;;10.83;8.40;;;9.20;99.90;;;;;;5010174;28;20204;-72
2022/06/02 02:37:11;;;;;;;12.17;8.80;;;9.20;99.90;;;;;;5004669;28;20192;-72
2022/06/02 02:40:20;;;;;;;9.40;8.50;;;9.20;99.90;;;;;;5005637;28;20215;-72
2022/06/02 02:43:10;;;;;;;9.73;8.73;;;9.20;99.90;;;;;;5004651;28;20192;-72
2022/06/02 02:46:01;;;;;;;10.17;9.07;;;9.10;99.90;;;;;;5008797;28;20266;-71
2022/06/02 02:48:59;;;;;;;9.93;8.93;;;9.10;99.90;;;;;;5004998;28;20570;-72
2022/06/02 02:51:59;;;;;;;10.50;8.93;;;9.10;99.90;;;;;;5004935;28;20723;-72
2022/06/02 02:54:54;;;;;;;9.77;8.77;;;9.00;99.90;;;;;;5020414;28;20252;-72
2022/06/02 02:58:05;;;;;;;9.80;8.80;;;9.00;99.90;;;;;;5008166;28;20276;-72
2022/06/02 03:01:01;;;;;;;11.30;8.63;;;9.00;99.90;;;;;;5008499;28;20757;-71
2022/06/02 03:04:27;;;;;;;11.03;8.30;;;9.00;99.90;;;;;;5017832;28;20200;-71
2022/06/02 03:07:12;;;;;;;9.53;8.50;;;9.00;99.90;;;;;;4975747;28;20250;-72
2022/06/02 03:10:15;;;;;;;9.93;8.93;;;9.00;99.90;;;;;;5004017;28;20203;-72
2022/06/02 03:13:16;;;;;;;10.40;9.07;;;9.00;99.90;;;;;;5001509;28;20183;-72
2022/06/02 03:16:05;;;;;;;9.90;8.63;;;9.00;99.90;;;;;;5007571;28;20183;-72
2022/06/02 03:19:11;;;;;;;11.50;9.63;;;9.00;99.90;;;;;;5007100;28;20258;-72
2022/06/02 03:22:26;;;;;;;12.50;10.30;;;9.00;99.90;;;;;;5007746;28;20239;-71
2022/06/02 03:25:43;;;;;;;11.23;9.30;;;8.90;99.90;;;;;;5003643;28;20275;-72
2022/06/02 03:28:45;;;;;;;11.27;9.43;;;8.90;99.90;;;;;;5004608;28;20273;-72
2022/06/02 03:31:42;;;;;;;10.83;9.10;;;8.80;99.90;;;;;;5005102;28;20632;-72
2022/06/02 03:34:55;;;;;;;11.37;9.13;;;8.70;99.90;;;;;;5002986;28;20212;-72
2022/06/02 03:38:17;;;;;;;10.97;9.33;;;8.70;99.90;;;;;;5006269;28;20223;-72
2022/06/02 03:41:20;;;;;;;10.70;9.00;;;8.70;99.90;;;;;;5006280;28;20263;-71
2022/06/02 03:44:22;;;;;;;10.77;9.30;;;8.70;99.90;;;;;;5002789;28;20696;-72
2022/06/02 03:47:18;;;;;;;10.27;9.13;;;8.60;99.90;;;;;;5000924;28;20196;-72
2022/06/02 03:50:19;;;;;;;12.13;9.30;;;8.60;99.90;;;;;;5006688;28;20204;-72
2022/06/02 03:53:25;;;;;;;10.93;9.83;;;8.60;99.90;;;;;;5007196;28;20210;-72
2022/06/02 03:56:26;;;;;;;12.07;10.10;;;8.60;99.90;;;;;;5007337;28;20307;-71
2022/06/02 03:59:18;;;;;;;12.03;10.20;;;8.60;99.90;;;;;;5005839;28;20197;-71
2022/06/02 04:02:08;;;;;;;13.03;10.27;;;8.60;99.90;;;;;;5004971;28;20228;-71
2022/06/02 04:05:20;;;;;;;15.90;10.80;;;8.60;99.90;;;;;;5004899;28;20239;-71
2022/06/02 04:08:17;;;;;;;12.60;10.63;;;8.60;99.90;;;;;;5004193;28;20189;-72
2022/06/02 04:11:11;;;;;;;12.30;10.77;;;8.60;99.90;;;;;;5010837;28;20767;-72
2022/06/02 04:14:25;;;;;;;12.73;10.70;;;8.70;99.90;;;;;;5010335;28;20274;-72
2022/06/02 04:17:18;;;;;;;12.53;11.07;;;8.70;99.90;;;;;;5012182;28;20692;-72
2022/06/02 04:20:36;;;;;;;12.33;11.00;;;8.70;99.90;;;;;;5009962;28;20184;-73
2022/06/02 04:23:48;;;;;;;11.40;10.20;;;8.70;99.90;;;;;;5005400;28;20723;-72
2022/06/02 04:27:01;;;;;;;11.87;10.53;;;8.70;99.90;;;;;;5005361;28;20243;-72
2022/06/02 04:29:53;;;;;;;11.50;10.30;;;8.70;99.90;;;;;;5002065;28;20203;-72
2022/06/02 04:32:49;;;;;;;12.60;10.77;;;8.80;99.90;;;;;;5002971;28;20184;-71
2022/06/02 04:35:37;;;;;;;13.53;11.23;;;8.80;99.90;;;;;;5006699;28;20184;-73
2022/06/02 04:38:52;;;;;;;12.27;11.07;;;8.80;99.90;;;;;;5003488;28;20247;-72
2022/06/02 04:42:17;;;;;;;13.57;11.27;;;8.90;99.90;;;;;;5003044;28;20251;-72
2022/06/02 04:45:09;;;;;;;12.80;11.43;;;9.00;99.90;;;;;;5002366;28;20196;-72
2022/06/02 04:48:17;;;;;;;14.23;11.97;;;9.00;99.90;;;;;;4999860;28;20188;-72
2022/06/02 04:51:24;;;;;;;15.70;12.80;;;9.00;99.90;;;;;;5005807;28;20247;-73
2022/06/02 04:54:37;;;;;;;14.00;12.60;;;9.10;99.90;;;;;;5020410;28;20222;-72
2022/06/02 04:57:56;;;;;;;13.37;11.33;;;9.20;99.90;;;;;;5009664;28;20183;-73
2022/06/02 05:01:07;;;;;;;18.10;12.87;;;9.20;99.90;;;;;;5008214;28;20211;-72
2022/06/02 05:04:38;;;;;;;16.00;12.83;;;9.30;99.90;;;;;;5019211;28;20200;-72
2022/06/02 05:07:47;;;;;;;16.30;12.67;;;9.40;99.90;;;;;;4993830;28;20250;-73
2022/06/02 05:10:51;;;;;;;17.43;12.53;;;9.40;99.90;;;;;;5004708;28;20226;-72
2022/06/02 05:13:44;;;;;;;20.43;12.73;;;9.50;99.90;;;;;;5005444;28;20186;-72
2022/06/02 05:16:50;;;;;;;17.93;12.83;;;9.60;99.90;;;;;;4996178;28;20208;-72
2022/06/02 05:19:49;;;;;;;14.60;12.47;;;9.60;99.90;;;;;;5003355;28;20187;-73
2022/06/02 05:22:48;;;;;;;17.33;13.33;;;9.70;99.90;;;;;;4997173;28;20184;-73
2022/06/02 05:26:09;;;;;;;14.03;12.50;;;9.80;99.90;;;;;;5007171;28;20211;-72
2022/06/02 05:29:11;;;;;;;14.57;12.60;;;9.90;99.90;;;;;;4998656;28;20247;-73
2022/06/02 05:32:22;;;;;;;16.57;12.07;;;9.90;99.90;;;;;;4999390;28;20211;-71
2022/06/02 05:35:32;;;;;;;15.30;11.37;;;10.10;99.90;;;;;;5003770;28;20184;-73
2022/06/02 05:38:40;;;;;;;14.47;11.60;;;10.10;99.90;;;;;;5014612;28;20272;-72
2022/06/02 05:41:53;;;;;;;14.37;10.93;;;10.20;99.90;;;;;;5005170;28;20211;-72
2022/06/02 05:44:44;;;;;;;13.80;11.10;;;10.30;99.90;;;;;;5002476;28;20211;-71
2022/06/02 05:47:41;;;;;;;13.33;10.03;;;10.40;99.90;;;;;;4998050;28;20298;-72
2022/06/02 05:50:31;;;;;;;15.10;10.50;;;10.60;99.90;;;;;;5003148;28;20218;-73
2022/06/02 05:53:42;;;;;;;12.13;10.57;;;10.60;99.90;;;;;;5004725;28;20237;-72
2022/06/02 05:56:49;;;;;;;12.20;10.00;;;10.70;99.90;;;;;;5003962;28;20212;-73
2022/06/02 05:59:54;;;;;;;12.77;10.20;;;10.80;99.90;;;;;;5005580;28;20200;-74
2022/06/02 06:03:20;;;;;;;11.77;10.57;;;10.90;99.90;;;;;;4923823;28;2366213;-72
2022/06/02 06:06:18;;;;;;;11.77;9.03;;;11.00;99.90;;;;;;5017836;28;20700;-73
2022/06/02 06:09:41;;;;;;;12.17;9.23;;;11.10;99.90;;;;;;5011152;28;20224;-73
2022/06/02 06:12:58;;;;;;;9.53;8.50;;;11.20;99.90;;;;;;5007334;28;20188;-73
2022/06/02 06:15:56;;;;;;;9.17;7.33;;;11.30;99.90;;;;;;5015777;28;20568;-73
2022/06/02 06:19:02;;;;;;;8.33;6.70;;;11.40;99.90;;;;;;5009758;28;20699;-73
2022/06/02 06:22:03;;;;;;;9.33;7.20;;;11.50;99.90;;;;;;5019088;28;20215;-73
2022/06/02 06:25:06;;;;;;;8.73;7.27;;;11.50;99.90;;;;;;5012856;28;20246;-72
2022/06/02 06:28:16;;;;;;;7.03;6.33;;;11.60;99.90;;;;;;5009029;28;20684;-73
2022/06/02 06:31:08;;;;;;;8.27;7.00;;;11.60;99.90;;;;;;4988373;28;20276;-73
2022/06/02 06:34:06;;;;;;;7.63;6.80;;;11.70;99.90;;;;;;5002274;28;20197;-73
2022/06/02 06:37:13;;;;;;;10.33;7.60;;;11.90;99.90;;;;;;5009805;28;20263;-72
2022/06/02 06:40:16;;;;;;;7.50;6.80;;;11.90;99.90;;;;;;5006916;28;20199;-73
2022/06/02 06:43:11;;;;;;;8.43;6.53;;;12.00;99.90;;;;;;5004922;28;20203;-73
2022/06/02 06:46:17;;;;;;;6.10;5.50;;;12.10;99.90;;;;;;5003367;28;20189;-73
2022/06/02 06:49:21;;;;;;;6.40;5.80;;;12.20;99.90;;;;;;5013089;28;20563;-73
2022/06/02 06:52:42;;;;;;;8.80;5.50;;;12.30;99.90;;;;;;5013066;28;20276;-73
2022/06/02 06:56:01;;;;;;;8.57;6.03;;;12.30;99.90;;;;;;5008257;28;20485;-73
2022/06/02 06:58:56;;;;;;;5.97;4.73;;;12.40;99.90;;;;;;4986049;28;20281;-73
2022/06/02 07:02:01;;;;;;;8.97;5.23;;;12.40;99.90;;;;;;5006726;28;20270;-72
2022/06/02 07:05:07;;;;;;;5.03;4.23;;;12.50;99.90;;;;;;5009061;28;20262;-73
2022/06/02 07:08:28;;;;;;;7.77;4.80;;;12.60;99.90;;;;;;5007365;28;20264;-73
2022/06/02 07:15:05;;;;;;;5.80;3.90;;;12.70;99.90;;;;;;5006251;28;20211;-72
2022/06/02 07:18:10;;;;;;;4.70;3.20;;;12.80;99.90;;;;;;5002321;28;20728;-72
2022/06/02 07:21:12;;;;;;;4.10;3.50;;;12.90;99.90;;;;;;5009458;28;20731;-73
2022/06/02 07:24:06;;;;;;;4.23;3.70;;;12.90;99.90;;;;;;5009626;28;20216;-73
2022/06/02 07:26:59;;;;;;;4.93;3.30;;;13.00;99.90;;;;;;5002092;28;20196;-73
2022/06/02 07:30:06;;;;;;;6.00;3.43;;;13.10;99.90;;;;;;5015776;28;20307;-72
2022/06/02 07:33:06;;;;;;;3.50;3.20;;;13.10;99.90;;;;;;5001641;28;20216;-72
2022/06/02 07:36:20;;;;;;;4.00;3.70;;;13.10;99.90;;;;;;5013562;28;20617;-72
2022/06/02 07:39:20;;;;;;;5.60;3.90;;;13.10;99.90;;;;;;5000726;28;20208;-72
2022/06/02 07:42:24;;;;;;;4.33;3.57;;;13.20;99.90;;;;;;4993123;28;20256;-72
2022/06/02 07:45:33;;;;;;;4.00;3.47;;;13.20;99.90;;;;;;5005043;28;20192;-73
2022/06/02 07:48:45;;;;;;;3.63;3.33;;;13.40;99.90;;;;;;5010081;28;20229;-73
2022/06/02 07:51:41;;;;;;;3.70;3.10;;;13.40;99.90;;;;;;5006119;28;20278;-72
2022/06/02 07:54:44;;;;;;;3.73;3.33;;;13.40;99.90;;;;;;5005018;28;20243;-72
2022/06/02 07:57:59;;;;;;;3.90;3.60;;;13.40;99.90;;;;;;4997622;28;20188;-72
2022/06/02 08:01:11;;;;;;;3.70;3.30;;;13.40;99.90;;;;;;5016209;28;20216;-71
2022/06/02 08:04:18;;;;;;;10.00;3.83;;;13.50;99.90;;;;;;5014969;28;20247;-72
2022/06/02 08:07:35;;;;;;;4.10;2.53;;;13.60;99.90;;;;;;5006131;28;20259;-72
2022/06/02 08:10:44;;;;;;;3.97;3.10;;;13.80;99.90;;;;;;5008783;28;20266;-71
2022/06/02 08:13:57;;;;;;;6.07;3.43;;;13.80;99.90;;;;;;5007775;28;20258;-71
2022/06/02 08:17:01;;;;;;;4.90;3.67;;;13.80;99.90;;;;;;5002255;28;20238;-72
2022/06/02 08:20:23;;;;;;;5.23;3.60;;;13.90;99.90;;;;;;5006816;28;20235;-73
2022/06/02 08:23:24;;;;;;;3.93;3.43;;;13.90;99.90;;;;;;5009944;28;20201;-71
2022/06/02 08:26:10;;;;;;;3.63;3.33;;;14.00;99.90;;;;;;5023486;28;20195;-72
2022/06/02 08:29:56;;;;;;;6.03;3.50;;;14.10;99.90;;;;;;5005478;28;20188;-72
2022/06/02 08:32:50;;;;;;;9.53;3.83;;;14.10;99.90;;;;;;4951160;28;20194;-71
2022/06/02 08:35:38;;;;;;;4.07;3.67;;;14.10;99.90;;;;;;4956987;28;20214;-71
2022/06/02 08:39:00;;;;;;;3.73;3.23;;;14.20;99.90;;;;;;5006847;28;20196;-72
2022/06/02 08:41:50;;;;;;;3.63;2.90;;;14.20;99.90;;;;;;5002009;28;20212;-72
2022/06/02 08:45:12;;;;;;;4.57;3.40;;;14.30;99.90;;;;;;5010544;28;20267;-71
2022/06/02 08:48:21;;;;;;;4.70;3.03;;;14.40;99.90;;;;;;5002353;28;20196;-71
2022/06/02 08:51:18;;;;;;;5.07;2.73;;;14.60;99.90;;;;;;5009034;28;20298;-72
2022/06/02 08:54:08;;;;;;;5.40;3.03;;;14.60;99.90;;;;;;5006601;28;20193;-70
2022/06/02 08:57:22;;;;;;;6.00;3.00;;;14.80;99.90;;;;;;5004314;28;20187;-72
2022/06/02 09:00:41;;;;;;;7.43;3.23;;;14.90;99.90;;;;;;5020420;28;20196;-72
2022/06/02 09:04:08;;;;;;;3.87;3.20;;;14.90;99.90;;;;;;4957185;28;20196;-73
2022/06/02 09:07:16;;;;;;;3.97;3.40;;;14.90;99.90;;;;;;5006769;28;20234;-74
2022/06/02 09:10:20;;;;;;;6.33;3.00;;;14.90;99.90;;;;;;5003806;28;20573;-74
2022/06/02 09:13:18;;;;;;;6.70;2.97;;;15.00;99.90;;;;;;4996003;28;20180;-74
2022/06/02 09:16:23;;;;;;;2.60;2.27;;;15.10;99.90;;;;;;4999861;28;20208;-73
2022/06/02 09:19:14;;;;;;;2.30;1.97;;;15.20;99.90;;;;;;5000324;28;20239;-73
2022/06/02 09:22:14;;;;;;;3.50;2.10;;;15.10;99.90;;;;;;5004603;28;20258;-73
2022/06/02 09:25:21;;;;;;;3.60;2.40;;;15.10;99.90;;;;;;5002899;28;20683;-76
2022/06/02 09:28:36;;;;;;;3.20;2.53;;;15.10;99.90;;;;;;5004298;28;20256;-76
2022/06/02 09:31:58;;;;;;;2.50;2.30;;;15.20;99.90;;;;;;5009604;28;20250;-73
2022/06/02 09:34:54;;;;;;;3.83;2.07;;;15.20;99.90;;;;;;5004269;28;20255;-73
2022/06/02 09:38:24;;;;;;;4.03;2.67;;;15.10;99.90;;;;;;5001962;28;20196;-74
2022/06/02 09:41:54;;;;;;;2.80;2.20;;;15.30;99.90;;;;;;5000947;28;20282;-75
2022/06/02 09:44:47;;;;;;;4.03;2.40;;;15.40;99.90;;;;;;5013441;28;20318;-74
2022/06/02 09:47:57;;;;;;;2.70;1.90;;;15.50;99.90;;;;;;5003538;28;20199;-74
2022/06/02 09:51:16;;;;;;;5.83;2.43;;;15.60;99.90;;;;;;5005595;28;20365;-73
2022/06/02 09:54:12;;;;;;;2.80;1.90;;;15.60;99.90;;;;;;5007576;28;20278;-74
2022/06/02 09:57:58;;;;;;;3.50;1.73;;;15.60;99.90;;;;;;5009827;28;20220;-74
2022/06/02 10:01:02;;;;;;;2.43;1.87;;;15.70;99.90;;;;;;4930909;29;20242;-75
2022/06/02 10:04:19;;;;;;;2.03;1.90;;;15.60;99.90;;;;;;5013338;28;20408;-74
2022/06/02 10:07:10;;;;;;;4.37;1.80;;;15.70;99.90;;;;;;4999327;28;20235;-74
2022/06/02 10:10:00;;;;;;;1.50;1.40;;;15.80;99.90;;;;;;5011036;28;20247;-75
2022/06/02 10:13:03;;;;;;;3.08;2.30;;;15.80;99.90;;;;;;5002127;28;20409;-75
2022/06/02 10:16:05;;;;;;;2.53;2.10;;;16.00;99.90;;;;;;5002938;28;20418;-72
2022/06/02 10:18:49;;;;;;;3.67;1.80;;;16.20;99.90;;;;;;5001940;28;20323;-73
2022/06/02 10:21:49;;;;;;;3.30;1.40;;;16.20;99.90;;;;;;5004257;28;20628;-73
2022/06/02 10:24:46;;;;;;;2.33;1.80;;;16.30;99.90;;;;;;5007897;28;20183;-73
2022/06/02 10:28:14;;;;;;;3.83;2.30;;;16.30;99.90;;;;;;5011808;28;20185;-73
2022/06/02 10:31:23;;;;;;;3.07;1.97;;;16.20;99.90;;;;;;4992025;28;20287;-72
2022/06/02 10:34:29;;;;;;;3.33;2.10;;;16.30;99.90;;;;;;4990560;28;20235;-73
2022/06/02 10:37:49;;;;;;;5.37;1.70;;;16.20;99.90;;;;;;4996071;28;20192;-74
2022/06/02 10:41:09;;;;;;;4.70;1.67;;;16.20;99.90;;;;;;5001200;28;20291;-73
2022/06/02 10:44:15;;;;;;;2.83;1.63;;;16.20;99.90;;;;;;5006236;28;20192;-73
2022/06/02 10:47:50;;;;;;;3.63;2.10;;;16.20;99.90;;;;;;5006446;28;20212;-73
2022/06/02 10:50:53;;;;;;;3.57;1.97;;;16.40;99.90;;;;;;4972774;28;20272;-73
2022/06/02 10:54:11;;;;;;;3.07;1.90;;;16.40;99.90;;;;;;5010665;28;20195;-73
2022/06/02 10:57:18;;;;;;;2.37;2.10;;;16.50;99.90;;;;;;5008976;28;20235;-73
2022/06/02 11:00:36;;;;;;;2.40;1.67;;;16.50;99.90;;;;;;5004441;28;20227;-75
2022/06/02 11:03:58;;;;;;;2.20;1.87;;;16.70;99.90;;;;;;5018151;28;20247;-73
2022/06/02 11:07:33;;;;;;;4.27;2.00;;;16.80;99.90;;;;;;5008163;28;20262;-73
2022/06/02 11:10:49;;;;;;;2.00;1.80;;;16.80;99.90;;;;;;5009562;28;20208;-71
2022/06/02 11:13:48;;;;;;;2.20;2.00;;;16.80;99.90;;;;;;5011359;28;20242;-73
2022/06/02 11:16:43;;;;;;;3.57;2.00;;;16.90;99.90;;;;;;5001139;28;20268;-75
2022/06/02 11:19:50;;;;;;;4.20;1.83;;;17.00;99.90;;;;;;5002266;28;20204;-73
2022/06/02 11:23:10;;;;;;;2.17;1.80;;;17.20;99.90;;;;;;5008551;28;20299;-76
2022/06/02 11:26:33;;;;;;;4.53;1.43;;;17.30;99.90;;;;;;5011844;28;20196;-75
2022/06/02 11:29:55;;;;;;;1.50;1.40;;;17.30;99.90;;;;;;5009301;28;20220;-75
2022/06/02 11:32:54;;;;;;;2.10;1.33;;;17.20;99.90;;;;;;5008555;28;20727;-75
2022/06/02 11:36:17;;;;;;;3.03;1.70;;;17.20;99.90;;;;;;5003908;28;20224;-76
2022/06/02 11:39:35;;;;;;;3.30;1.77;;;17.10;99.90;;;;;;5003529;28;20196;-72
2022/06/02 11:42:54;;;;;;;4.37;2.23;;;17.20;99.90;;;;;;5002626;28;20204;-74
2022/06/02 11:46:00;;;;;;;2.07;1.40;;;17.30;99.90;;;;;;5012228;28;20227;-74
2022/06/02 11:49:22;;;;;;;1.63;1.53;;;17.50;99.90;;;;;;5011994;28;20184;-74
2022/06/02 11:52:33;;;;;;;2.33;1.30;;;17.50;99.90;;;;;;5006393;28;20220;-74
2022/06/02 11:55:55;;;;;;;2.13;1.23;;;17.40;99.90;;;;;;5012786;28;20307;-74
2022/06/02 11:59:16;;;;;;;4.37;1.73;;;17.40;99.90;;;;;;5010206;28;20626;-74
2022/06/02 12:02:28;;;;;;;5.57;1.70;;;17.40;99.90;;;;;;5014172;28;20220;-74
2022/06/02 12:05:39;;;;;;;1.90;1.50;;;17.40;99.90;;;;;;5005353;28;20204;-74
2022/06/02 12:09:01;;;;;;;1.93;1.73;;;17.50;99.90;;;;;;5014480;28;20239;-76
2022/06/02 12:12:04;;;;;;;2.87;1.77;;;17.50;99.90;;;;;;5007398;28;20216;-76
2022/06/02 12:15:16;;;;;;;2.60;1.67;;;17.50;99.90;;;;;;5010254;28;20191;-76
2022/06/02 12:18:22;;;;;;;1.70;1.33;;;17.50;99.90;;;;;;5013274;28;20327;-74
2022/06/02 12:21:37;;;;;;;3.10;1.50;;;17.50;99.90;;;;;;5012063;28;20241;-75
2022/06/02 12:25:04;;;;;;;2.63;1.70;;;17.70;99.90;;;;;;5014648;28;20208;-75
2022/06/02 12:28:03;;;;;;;1.73;1.30;;;17.80;99.90;;;;;;5005426;28;20818;-75
2022/06/02 12:31:17;;;;;;;2.43;1.10;;;17.70;99.90;;;;;;5017405;28;20315;-75
2022/06/02 12:34:20;;;;;;;1.33;0.90;;;17.80;99.90;;;;;;5006251;28;20188;-74
2022/06/02 12:37:17;;;;;;;2.70;1.20;;;17.90;99.90;;;;;;5007390;28;20467;-74
2022/06/02 12:40:18;;;;;;;1.93;1.40;;;17.80;99.90;;;;;;5009035;28;20238;-74
2022/06/02 12:43:41;;;;;;;1.90;1.20;;;17.80;99.90;;;;;;5002496;28;20180;-74
2022/06/02 12:46:32;;;;;;;1.93;1.20;;;17.90;99.90;;;;;;5004587;28;20200;-74
2022/06/02 12:49:37;;;;;;;1.83;1.33;;;17.90;99.90;;;;;;5008701;28;20188;-75
2022/06/02 12:52:53;;;;;;;2.57;1.63;;;17.90;99.90;;;;;;5007901;28;20215;-74
2022/06/02 12:56:15;;;;;;;1.77;0.90;;;17.80;99.90;;;;;;5021965;28;20184;-74
2022/06/02 12:59:24;;;;;;;2.03;1.10;;;17.90;99.90;;;;;;5003391;28;20192;-74
2022/06/02 13:02:08;;;;;;;1.20;1.10;;;18.00;99.90;;;;;;5012720;28;20219;-74
2022/06/02 13:05:30;;;;;;;5.13;1.00;;;18.00;99.90;;;;;;5009213;28;20259;-74
2022/06/02 13:08:55;;;;;;;1.40;1.30;;;18.00;99.90;;;;;;5004405;28;20185;-74
2022/06/02 13:12:26;;;;;;;0.80;0.80;;;18.20;99.90;;;;;;4989828;28;20292;-74
2022/06/02 13:15:43;;;;;;;1.67;1.20;;;18.30;99.90;;;;;;4976269;28;20219;-74
2022/06/02 13:19:04;;;;;;;4.00;1.00;;;18.30;99.90;;;;;;4993020;28;20183;-73
2022/06/02 13:22:23;;;;;;;1.60;1.27;;;18.30;99.90;;;;;;5005178;28;20208;-75
2022/06/02 13:25:29;;;;;;;0.93;0.90;;;18.20;99.90;;;;;;5005899;28;20200;-73
2022/06/02 13:28:49;;;;;;;1.33;0.80;;;18.20;99.90;;;;;;5008079;28;20230;-74
2022/06/02 13:32:01;;;;;;;3.03;1.10;;;18.30;99.90;;;;;;5004322;28;20212;-75
2022/06/02 13:35:07;;;;;;;1.30;1.10;;;18.40;99.90;;;;;;5007041;28;20759;-74
2022/06/02 13:38:20;;;;;;;1.35;1.20;;;18.50;99.90;;;;;;5017785;28;20260;-74
2022/06/02 13:41:07;;;;;;;1.75;1.20;;;18.60;99.90;;;;;;5004936;28;20227;-74
2022/06/02 13:44:16;;;;;;;2.30;1.10;;;18.50;99.90;;;;;;5003820;28;20177;-73
2022/06/02 13:47:28;;;;;;;1.08;0.90;;;18.40;99.90;;;;;;5006216;28;20206;-74
2022/06/02 13:50:33;;;;;;;3.70;1.10;;;18.40;99.90;;;;;;5002974;28;20228;-73
2022/06/02 13:57:30;;;;;;;1.70;0.90;;;18.40;99.90;;;;;;5000510;28;20191;-73
2022/06/02 13:57:31;;;;;;;1.20;1.00;;;18.40;99.90;;;;;;4999111;28;20227;-74
2022/06/02 14:00:33;;;;;;;3.50;1.10;;;18.60;99.90;;;;;;5001238;28;20258;-73
2022/06/02 14:03:42;;;;;;;1.47;0.80;;;18.60;99.90;;;;;;5002284;28;20220;-74
2022/06/02 14:06:33;;;;;;;1.23;1.10;;;18.80;99.90;;;;;;5006369;28;20546;-74
2022/06/02 14:09:28;;;;;;;1.53;1.00;;;18.80;99.90;;;;;;5004826;28;20195;-74
2022/06/02 14:12:38;;;;;;;2.67;0.73;;;18.80;99.90;;;;;;4999290;28;20240;-73
2022/06/02 14:15:46;;;;;;;1.42;1.00;;;18.90;99.90;;;;;;4997987;28;20197;-74
2022/06/02 14:18:33;;;;;;;1.65;0.90;;;18.90;99.90;;;;;;5009082;28;20196;-74
2022/06/02 14:21:56;;;;;;;1.87;0.80;;;19.00;99.90;;;;;;5003238;28;20228;-75
2022/06/02 14:24:46;;;;;;;1.33;1.00;;;19.10;99.90;;;;;;5003402;28;20327;-76
2022/06/02 14:27:42;;;;;;;1.02;0.93;;;19.10;99.90;;;;;;5010638;28;20192;-73
2022/06/02 14:31:14;;;;;;;1.20;1.00;;;19.30;99.90;;;;;;5008677;28;20238;-73
2022/06/02 14:34:18;;;;;;;1.33;0.90;;;19.30;99.90;;;;;;4964375;28;20334;-75
2022/06/02 14:37:09;;;;;;;2.40;1.10;;;19.40;99.90;;;;;;5022241;28;20234;-74
2022/06/02 14:40:02;;;;;;;1.00;1.00;;;19.40;99.90;;;;;;5007987;28;20184;-78
2022/06/02 14:43:34;;;;;;;1.00;0.90;;;19.30;99.90;;;;;;5004570;28;20199;-76
2022/06/02 14:46:33;;;;;;;1.23;1.13;;;19.40;99.90;;;;;;4978520;28;20306;-75
2022/06/02 14:49:34;;;;;;;1.88;1.00;;;19.50;99.90;;;;;;5010814;28;20899;-74
2022/06/02 14:52:42;;;;;;;5.15;1.05;;;19.60;99.90;;;;;;5006150;28;20220;-75
2022/06/02 14:55:42;;;;;;;2.20;1.30;;;19.70;99.90;;;;;;5007627;28;20187;-73
2022/06/02 14:58:37;;;;;;;2.55;0.80;;;19.70;99.90;;;;;;5009379;28;20212;-74
2022/06/02 15:01:38;;;;;;;1.15;1.00;;;19.80;99.90;;;;;;5014810;28;20640;-76
2022/06/02 15:04:50;;;;;;;1.38;0.90;;;19.90;99.90;;;;;;5022125;28;20211;-76
2022/06/02 15:07:56;;;;;;;1.42;1.00;;;20.00;99.90;;;;;;5008285;28;20196;-79
2022/06/02 15:10:41;;;;;;;1.55;1.23;;;20.00;99.90;;;;;;5009937;28;20602;-77
2022/06/02 15:16:47;;;;;;;1.45;1.02;;;19.90;99.90;;;;;;5017937;28;20243;-77
2022/06/02 15:19:56;;;;;;;2.75;0.90;;;19.80;99.90;;;;;;5013007;28;20212;-77
2022/06/02 15:22:58;;;;;;;0.80;0.80;;;19.90;99.90;;;;;;5015602;28;20547;-76
2022/06/02 15:26:07;;;;;;;2.28;1.02;;;19.90;99.90;;;;;;5007864;28;20250;-76
2022/06/02 15:29:02;;;;;;;2.13;1.17;;;19.90;99.90;;;;;;5000006;28;20200;-77
2022/06/02 15:32:13;;;;;;;2.28;0.90;;;19.90;99.90;;;;;;5009240;28;20215;-77
2022/06/02 15:35:33;;;;;;;0.63;0.63;;;20.00;99.90;;;;;;5008514;28;20213;-77
2022/06/02 15:38:37;;;;;;;0.90;0.90;;;19.90;99.90;;;;;;5016963;28;20284;-76
2022/06/02 15:41:43;;;;;;;1.45;0.98;;;20.00;99.90;;;;;;5013591;28;20216;-76
2022/06/02 15:45:00;;;;;;;1.60;1.02;;;20.00;99.90;;;;;;5018421;28;20283;-75
2022/06/02 15:48:31;;;;;;;1.55;0.90;;;20.10;99.90;;;;;;5010824;28;20199;-75
2022/06/02 15:51:47;;;;;;;1.50;1.00;;;20.00;99.90;;;;;;4998737;28;20270;-76
2022/06/02 15:54:46;;;;;;;1.02;1.00;;;20.00;99.90;;;;;;4998835;28;20296;-75
2022/06/02 15:57:49;;;;;;;2.80;1.08;;;20.10;99.90;;;;;;5005628;28;20227;-76
2022/06/02 16:01:13;;;;;;;1.25;1.15;;;20.20;99.90;;;;;;5010610;28;20212;-75
2022/06/02 16:04:22;;;;;;;1.38;1.05;;;20.30;99.90;;;;;;5007997;28;20216;-76
2022/06/02 16:07:21;;;;;;;1.73;1.08;;;20.30;99.90;;;;;;5008644;28;20207;-76
2022/06/02 16:13:35;;;;;;;1.58;0.80;;;20.40;99.90;;;;;;5004745;28;20176;-75
2022/06/02 16:16:58;;;;;;;1.77;0.80;;;20.40;99.90;;;;;;5006719;28;20268;-75
2022/06/02 16:19:54;;;;;;;0.80;0.80;;;20.30;99.90;;;;;;4995210;28;20196;-76
2022/06/02 16:23:22;;;;;;;1.65;0.82;;;20.30;99.90;;;;;;5000699;28;20597;-75